createdAt,value
2019-05-10T00:00:34.493Z,6.33
2019-05-10T00:03:26.530Z,6.30
2019-05-10T00:06:17.051Z,6.17
2019-05-10T00:08:49.097Z,6.43
2019-05-10T00:11:31.438Z,5.27
2019-05-10T00:14:27.334Z,5.53
2019-05-10T00:17:02.267Z,5.47
2019-05-10T00:19:32.766Z,5.90
2019-05-10T00:22:02.728Z,5.13
2019-05-10T00:24:33.690Z,4.00
2019-05-10T00:27:03.813Z,4.63
2019-05-10T00:29:33.383Z,4.57
2019-05-10T00:32:02.944Z,4.17
2019-05-10T00:34:33.063Z,3.60
2019-05-10T00:37:03.345Z,4.30
2019-05-10T00:39:33.389Z,3.90
2019-05-10T00:42:03.404Z,3.63
2019-05-10T00:44:34.028Z,3.80
2019-05-10T00:47:04.193Z,3.30
2019-05-10T00:49:33.741Z,3.90
2019-05-10T00:52:03.574Z,4.20
2019-05-10T00:54:33.687Z,3.90
2019-05-10T00:57:03.700Z,3.67
2019-05-10T00:59:33.727Z,3.37
2019-05-10T01:02:03.779Z,3.43
2019-05-10T01:04:33.772Z,3.97
2019-05-10T01:07:03.927Z,4.70
2019-05-10T01:09:33.969Z,4.37
2019-05-10T01:12:03.665Z,3.80
2019-05-10T01:14:33.359Z,4.07
2019-05-10T01:17:02.850Z,3.63
2019-05-10T01:19:32.180Z,3.60
2019-05-10T01:22:03.975Z,3.90
2019-05-10T01:24:34.022Z,3.37
2019-05-10T01:27:03.282Z,3.37
2019-05-10T01:29:32.922Z,3.07
2019-05-10T01:32:02.688Z,4.00
2019-05-10T01:34:33.209Z,3.73
2019-05-10T01:37:02.487Z,3.93
2019-05-10T01:39:32.115Z,4.17
2019-05-10T01:42:01.423Z,4.57
2019-05-10T01:44:30.714Z,3.73
2019-05-10T01:47:00.139Z,4.10
2019-05-10T01:49:29.907Z,3.50
2019-05-10T01:52:00.663Z,3.67
2019-05-10T01:54:30.211Z,4.40
2019-05-10T01:56:59.511Z,3.37
2019-05-10T01:59:29.139Z,3.53
2019-05-10T02:01:58.789Z,3.20
2019-05-10T02:04:28.117Z,4.17
2019-05-10T02:06:57.391Z,3.60
2019-05-10T02:09:27.076Z,3.23
2019-05-10T02:11:59.650Z,3.23
2019-05-10T02:14:28.952Z,3.77
2019-05-10T02:16:58.615Z,3.37
2019-05-10T02:19:27.961Z,3.70
2019-05-10T02:21:57.599Z,2.67
2019-05-10T02:24:26.915Z,2.87
2019-05-10T02:26:56.150Z,3.83
2019-05-10T02:29:25.470Z,3.20
2019-05-10T02:31:54.776Z,3.20
2019-05-10T02:34:24.112Z,2.77
2019-05-10T02:36:53.812Z,3.07
2019-05-10T02:39:23.387Z,3.20
2019-05-10T02:41:52.643Z,3.07
2019-05-10T02:44:22.441Z,3.20
2019-05-10T02:46:52.124Z,2.80
2019-05-10T02:49:21.659Z,3.23
2019-05-10T02:51:51.017Z,3.50
2019-05-10T02:54:20.384Z,3.10
2019-05-10T02:56:51.347Z,3.57
2019-05-10T02:59:24.174Z,3.23
2019-05-10T03:01:56.943Z,3.20
2019-05-10T03:04:27.592Z,2.93
2019-05-10T03:07:03.442Z,3.30
2019-05-10T03:09:33.310Z,3.20
2019-05-10T03:12:24.336Z,3.67
2019-05-10T03:14:55.735Z,2.80
2019-05-10T03:17:26.556Z,3.30
2019-05-10T03:19:56.527Z,3.40
2019-05-10T03:22:27.889Z,4.13
2019-05-10T03:24:57.429Z,3.53
2019-05-10T03:27:27.055Z,3.70
2019-05-10T03:29:57.073Z,3.77
2019-05-10T03:32:26.739Z,3.90
2019-05-10T03:34:56.067Z,3.80
2019-05-10T03:37:25.600Z,3.77
2019-05-10T03:39:55.290Z,3.73
2019-05-10T03:42:27.831Z,3.03
2019-05-10T03:44:57.138Z,4.07
2019-05-10T03:47:26.483Z,4.10
2019-05-10T03:49:55.809Z,3.97
2019-05-10T03:52:25.413Z,4.40
2019-05-10T03:54:55.005Z,4.00
2019-05-10T03:57:24.292Z,4.53
2019-05-10T03:59:53.971Z,4.43
2019-05-10T04:02:23.263Z,4.13
2019-05-10T04:04:52.977Z,4.77
2019-05-10T04:07:22.323Z,4.37
2019-05-10T04:09:52.671Z,4.50
2019-05-10T04:12:22.213Z,4.80
2019-05-10T04:14:51.504Z,4.27
2019-05-10T04:17:22.627Z,4.70
2019-05-10T04:19:51.964Z,3.80
2019-05-10T04:22:21.653Z,4.63
2019-05-10T04:24:51.327Z,3.57
2019-05-10T04:27:31.738Z,4.37
2019-05-10T04:29:51.963Z,4.83
2019-05-10T04:32:21.610Z,4.33
2019-05-10T04:34:51.021Z,4.50
2019-05-10T04:37:20.675Z,3.57
2019-05-10T04:39:58.049Z,3.90
2019-05-10T04:42:27.740Z,4.63
2019-05-10T04:44:59.356Z,4.57
2019-05-10T04:47:31.878Z,4.53
2019-05-10T04:50:04.690Z,4.23
2019-05-10T04:52:37.921Z,4.83
2019-05-10T04:55:12.304Z,5.27
2019-05-10T04:57:50.374Z,4.80
2019-05-10T05:00:20.851Z,4.30
2019-05-10T05:02:54.549Z,5.20
2019-05-10T05:05:25.134Z,4.90
2019-05-10T05:07:57.488Z,5.13
2019-05-10T05:10:27.227Z,5.13
2019-05-10T05:12:56.663Z,4.80
2019-05-10T05:15:27.798Z,5.17
2019-05-10T05:17:57.737Z,4.70
2019-05-10T05:20:27.032Z,4.97
2019-05-10T05:22:56.686Z,4.23
2019-05-10T05:25:26.643Z,4.10
2019-05-10T05:28:07.560Z,5.07
2019-05-10T05:30:27.038Z,4.70
2019-05-10T05:32:57.007Z,4.50
2019-05-10T05:35:26.522Z,4.70
2019-05-10T05:37:55.787Z,4.43
2019-05-10T05:40:27.671Z,4.47
2019-05-10T05:42:56.970Z,4.40
2019-05-10T05:45:28.356Z,4.40
2019-05-10T05:47:58.249Z,4.27
2019-05-10T05:50:27.947Z,4.83
2019-05-10T05:52:57.688Z,4.33
2019-05-10T05:55:30.614Z,4.40
2019-05-10T05:57:59.110Z,4.70
2019-05-10T06:00:37.843Z,4.47
2019-05-10T06:03:03.009Z,4.20
2019-05-10T06:05:34.594Z,4.70
2019-05-10T06:08:04.209Z,5.23
2019-05-10T06:10:33.548Z,4.33
2019-05-10T06:13:03.366Z,4.77
2019-05-10T06:15:32.719Z,4.27
2019-05-10T06:18:03.519Z,4.00
2019-05-10T06:20:38.237Z,4.47
2019-05-10T06:23:06.919Z,4.47
2019-05-10T06:25:40.557Z,4.50
2019-05-10T06:28:24.115Z,4.47
2019-05-10T06:30:38.335Z,4.00
2019-05-10T06:33:12.683Z,3.57
2019-05-10T06:35:38.646Z,3.80
2019-05-10T06:38:10.535Z,3.70
2019-05-10T06:40:46.759Z,3.67
2019-05-10T06:43:13.620Z,3.30
2019-05-10T06:45:46.814Z,3.63
2019-05-10T06:48:25.784Z,3.23
2019-05-10T06:50:49.542Z,3.50
2019-05-10T06:53:19.327Z,3.87
2019-05-10T06:55:49.298Z,3.17
2019-05-10T06:58:18.948Z,2.43
2019-05-10T07:00:53.603Z,2.87
2019-05-10T07:03:22.865Z,3.37
2019-05-10T07:05:52.511Z,2.67
2019-05-10T07:08:21.762Z,3.20
2019-05-10T07:10:51.821Z,3.07
2019-05-10T07:13:21.489Z,2.57
2019-05-10T07:15:51.138Z,3.40
2019-05-10T07:18:22.615Z,3.43
2019-05-10T07:20:52.123Z,3.83
2019-05-10T07:23:22.425Z,3.60
2019-05-10T07:25:52.582Z,3.83
2019-05-10T07:28:23.127Z,4.70
2019-05-10T07:30:53.707Z,3.77
2019-05-10T07:33:23.358Z,4.00
2019-05-10T07:35:53.527Z,3.33
2019-05-10T07:38:30.271Z,3.50
2019-05-10T07:40:54.942Z,3.43
2019-05-10T07:43:28.587Z,2.83
2019-05-10T07:45:58.585Z,3.17
2019-05-10T07:48:26.758Z,2.60
2019-05-10T07:50:56.410Z,2.53
2019-05-10T07:53:26.151Z,3.10
2019-05-10T07:55:59.901Z,2.83
2019-05-10T07:58:26.522Z,2.83
2019-05-10T08:00:56.394Z,2.70
2019-05-10T08:03:26.129Z,2.70
2019-05-10T08:05:59.860Z,2.20
2019-05-10T08:08:29.472Z,2.40
2019-05-10T08:10:59.338Z,2.40
2019-05-10T08:13:29.142Z,2.13
2019-05-10T08:15:59.437Z,2.10
2019-05-10T08:18:29.489Z,2.93
2019-05-10T08:21:02.450Z,2.63
2019-05-10T08:23:30.514Z,2.30
2019-05-10T08:26:04.234Z,2.10
2019-05-10T08:28:36.477Z,2.10
2019-05-10T08:31:04.181Z,2.40
2019-05-10T08:33:37.266Z,2.03
2019-05-10T08:36:07.234Z,2.07
2019-05-10T08:38:39.647Z,2.23
2019-05-10T08:41:14.342Z,2.33
2019-05-10T08:43:42.817Z,1.60
2019-05-10T08:46:12.128Z,1.97
2019-05-10T08:48:50.318Z,2.33
2019-05-10T08:51:14.508Z,1.80
2019-05-10T08:53:47.049Z,2.10
2019-05-10T08:56:21.109Z,1.60
2019-05-10T08:58:46.863Z,2.17
2019-05-10T09:01:26.750Z,1.73
2019-05-10T09:03:55.163Z,1.80
2019-05-10T09:06:22.222Z,1.93
2019-05-10T09:09:05.931Z,2.00
2019-05-10T09:11:32.753Z,2.00
2019-05-10T09:14:03.196Z,1.40
2019-05-10T09:16:39.204Z,2.27
2019-05-10T09:19:06.283Z,1.60
2019-05-10T09:21:41.266Z,1.70
2019-05-10T09:24:07.968Z,1.40
2019-05-10T09:26:41.784Z,2.27
2019-05-10T09:29:12.137Z,1.87
2019-05-10T09:31:50.601Z,1.67
2019-05-10T09:34:26.083Z,2.03
2019-05-10T09:36:55.493Z,1.53
2019-05-10T09:39:25.325Z,1.87
2019-05-10T09:41:55.141Z,1.60
2019-05-10T09:44:34.280Z,1.90
2019-05-10T09:47:22.074Z,1.80
2019-05-10T09:49:58.964Z,1.70
2019-05-10T09:52:30.621Z,1.60
2019-05-10T09:55:03.982Z,1.40
2019-05-10T09:57:32.398Z,1.70
2019-05-10T10:00:01.816Z,1.37
2019-05-10T10:02:33.905Z,1.67
2019-05-10T10:05:02.575Z,1.80
2019-05-10T10:07:33.649Z,2.13
2019-05-10T10:10:03.448Z,2.57
2019-05-10T10:12:32.735Z,1.50
2019-05-10T10:15:02.064Z,1.80
2019-05-10T10:17:40.198Z,1.50
2019-05-10T10:20:08.360Z,1.93
2019-05-10T10:22:38.161Z,2.17
2019-05-10T10:25:07.725Z,1.70
2019-05-10T10:27:39.559Z,1.80
2019-05-10T10:30:12.814Z,1.60
2019-05-10T10:32:40.377Z,1.93
2019-05-10T10:35:13.304Z,1.53
2019-05-10T10:37:42.165Z,1.70
2019-05-10T10:40:15.112Z,1.33
2019-05-10T10:42:43.110Z,1.37
2019-05-10T10:45:12.952Z,1.80
2019-05-10T10:47:42.294Z,1.13
2019-05-10T10:50:17.224Z,1.50
2019-05-10T10:52:46.287Z,1.60
2019-05-10T10:55:18.537Z,1.17
2019-05-10T10:57:48.311Z,1.37
2019-05-10T11:00:23.521Z,1.40
2019-05-10T11:02:53.721Z,1.03
2019-05-10T11:05:23.127Z,1.40
2019-05-10T11:07:52.770Z,1.57
2019-05-10T11:10:31.233Z,1.60
2019-05-10T11:13:02.856Z,2.17
2019-05-10T11:15:41.967Z,1.43
2019-05-10T11:18:11.386Z,1.33
2019-05-10T11:20:49.457Z,1.30
2019-05-10T11:23:16.243Z,1.00
2019-05-10T11:25:56.812Z,1.10
2019-05-10T11:28:30.098Z,1.40
2019-05-10T11:31:01.390Z,1.30
2019-05-10T11:33:33.976Z,1.20
2019-05-10T11:36:08.454Z,1.20
2019-05-10T11:38:34.740Z,1.13
2019-05-10T11:41:13.039Z,1.10
2019-05-10T11:43:41.741Z,1.77
2019-05-10T11:46:11.713Z,1.47
2019-05-10T11:48:44.290Z,1.40
2019-05-10T11:51:33.457Z,1.10
2019-05-10T11:54:03.210Z,1.20
2019-05-10T11:56:33.175Z,0.97
2019-05-10T12:02:02.689Z,1.00
2019-05-10T12:04:38.854Z,1.00
2019-05-10T12:07:27.485Z,0.93
2019-05-10T12:10:03.120Z,1.03
2019-05-10T12:14:57.075Z,0.80
2019-05-10T12:17:27.492Z,0.87
2019-05-10T12:19:56.878Z,1.50
2019-05-10T12:22:32.115Z,1.10
2019-05-10T12:25:18.760Z,1.03
2019-05-10T12:26:27.644Z,1.07
2019-05-10T12:27:41.792Z,1.00
2019-05-10T12:30:03.220Z,1.03
2019-05-10T12:32:36.983Z,1.10
2019-05-10T12:35:35.555Z,1.00
2019-05-10T12:38:01.668Z,1.30
2019-05-10T12:40:31.462Z,0.90
2019-05-10T12:43:11.811Z,0.80
2019-05-10T12:45:41.848Z,1.10
2019-05-10T12:48:11.306Z,1.17
